Time;durP1;ratioP1;P1;durP2;ratioP2;P2;SDS_P1;SDS_P2;PMS_P1;PMS_P2;Temp;Humidity;BMP_temperature;BMP_pressure;BME280_temperature;BME280_humidity;BME280_pressure;Samples;Min_cycle;Max_cycle;Signal;HPM_P1;HPM_P2
2021/03/20 00:01:24;;;;;;;7.32;3.38;;;;;;;;;;5120694;28;20153;-84
2021/03/20 00:03:51;;;;;;;5.63;3.05;;;;;;;;;;5128595;28;20159;-84
2021/03/20 00:06:19;;;;;;;8.05;3.33;;;;;;;;;;5132907;28;20068;-83
2021/03/20 00:08:49;;;;;;;6.78;2.78;;;;;;;;;;5134056;28;20249;-84
2021/03/20 00:11:20;;;;;;;5.22;2.70;;;;;;;;;;5123756;28;20055;-84
2021/03/20 00:13:49;;;;;;;8.90;3.42;;;;;;;;;;5110901;28;20124;-84
2021/03/20 00:16:16;;;;;;;6.25;3.63;;;;;;;;;;5097367;28;20148;-84
2021/03/20 00:18:43;;;;;;;9.73;2.80;;;;;;;;;;5102139;28;20178;-84
2021/03/20 00:21:09;;;;;;;6.25;3.45;;;;;;;;;;5118735;28;20048;-84
2021/03/20 00:23:36;;;;;;;5.35;3.05;;;;;;;;;;5118267;28;20086;-84
2021/03/20 00:26:03;;;;;;;7.25;2.80;;;;;;;;;;5118435;28;20060;-84
2021/03/20 00:28:29;;;;;;;8.77;3.70;;;;;;;;;;5119932;28;20051;-84
2021/03/20 00:31:12;;;;;;;8.73;3.13;;;;;;;;;;5121126;28;20111;-84
2021/03/20 00:33:42;;;;;;;5.88;3.53;;;;;;;;;;5118499;28;20472;-84
2021/03/20 00:36:12;;;;;;;6.72;3.13;;;;;;;;;;5118980;28;20044;-84
2021/03/20 00:38:38;;;;;;;5.20;2.92;;;;;;;;;;5116375;28;20055;-84
2021/03/20 00:41:09;;;;;;;8.45;3.53;;;;;;;;;;5116352;28;20112;-84
2021/03/20 00:43:36;;;;;;;7.57;3.33;;;;;;;;;;5117305;28;20058;-84
2021/03/20 00:46:16;;;;;;;10.55;3.63;;;;;;;;;;5112962;28;20320;-84
2021/03/20 00:48:45;;;;;;;10.50;3.13;;;;;;;;;;5118284;28;20113;-84
2021/03/20 00:51:14;;;;;;;7.43;3.28;;;;;;;;;;5115926;28;20111;-84
2021/03/20 00:53:41;;;;;;;13.57;2.90;;;;;;;;;;5120110;28;20060;-84
2021/03/20 00:56:06;;;;;;;7.07;2.63;;;;;;;;;;5119448;28;20051;-85
2021/03/20 00:58:35;;;;;;;7.32;2.47;;;;;;;;;;5116264;28;20052;-84
2021/03/20 01:01:06;;;;;;;11.52;3.47;;;;;;;;;;5115936;28;20047;-84
2021/03/20 01:03:38;;;;;;;6.60;3.03;;;;;;;;;;5116075;28;20134;-84
2021/03/20 01:06:10;;;;;;;6.45;2.97;;;;;;;;;;5117807;28;20048;-84
2021/03/20 01:08:39;;;;;;;10.35;3.58;;;;;;;;;;5119604;28;20051;-84
2021/03/20 01:11:06;;;;;;;8.38;3.15;;;;;;;;;;5117857;28;20435;-84
2021/03/20 01:13:34;;;;;;;4.72;3.00;;;;;;;;;;5115340;28;20059;-84
2021/03/20 01:16:00;;;;;;;4.95;2.97;;;;;;;;;;5117103;28;20111;-84
2021/03/20 01:18:26;;;;;;;6.97;3.40;;;;;;;;;;5116167;28;20374;-84
2021/03/20 01:20:53;;;;;;;5.43;3.15;;;;;;;;;;5117368;28;20209;-84
2021/03/20 01:23:22;;;;;;;10.50;3.47;;;;;;;;;;5116578;28;20377;-84
2021/03/20 01:25:47;;;;;;;8.98;3.17;;;;;;;;;;5117521;27;20051;-84
2021/03/20 01:28:13;;;;;;;9.20;3.33;;;;;;;;;;5119012;28;20505;-84
2021/03/20 01:30:43;;;;;;;7.10;3.60;;;;;;;;;;5117780;28;20424;-84
2021/03/20 01:33:10;;;;;;;11.23;3.72;;;;;;;;;;5118546;28;20058;-84
2021/03/20 01:35:39;;;;;;;8.75;4.38;;;;;;;;;;5118257;28;20075;-84
2021/03/20 01:38:06;;;;;;;9.38;4.00;;;;;;;;;;5118616;27;20077;-84
2021/03/20 01:41:04;;;;;;;7.03;3.60;;;;;;;;;;5129609;28;20031;-84
2021/03/20 01:43:36;;;;;;;7.97;3.63;;;;;;;;;;5103167;28;20047;-84
2021/03/20 01:46:21;;;;;;;7.80;2.95;;;;;;;;;;5135065;28;20038;-84
2021/03/20 01:48:47;;;;;;;4.45;3.10;;;;;;;;;;5133827;28;20048;-84
2021/03/20 01:51:13;;;;;;;7.00;2.95;;;;;;;;;;5118940;28;20370;-85
2021/03/20 01:53:39;;;;;;;6.28;2.83;;;;;;;;;;5120415;28;20055;-84
2021/03/20 01:56:11;;;;;;;8.57;3.00;;;;;;;;;;5121797;28;20107;-84
2021/03/20 01:58:41;;;;;;;5.45;3.00;;;;;;;;;;5103475;28;20102;-84
2021/03/20 02:01:22;;;;;;;6.65;3.10;;;;;;;;;;5111680;28;20096;-84
2021/03/20 02:03:48;;;;;;;6.90;3.40;;;;;;;;;;5110774;28;20051;-84
2021/03/20 02:06:23;;;;;;;6.70;3.80;;;;;;;;;;5098812;28;20108;-84
2021/03/20 02:08:50;;;;;;;9.23;3.15;;;;;;;;;;5098087;28;20064;-84
2021/03/20 02:11:29;;;;;;;6.93;3.40;;;;;;;;;;5105965;28;20047;-84
2021/03/20 02:14:23;;;;;;;11.25;4.25;;;;;;;;;;5118764;28;20066;-84
2021/03/20 02:17:05;;;;;;;12.88;3.53;;;;;;;;;;5123484;28;20115;-84
2021/03/20 02:20:10;;;;;;;8.00;3.60;;;;;;;;;;5127982;28;20085;-84
2021/03/20 02:22:55;;;;;;;7.30;3.42;;;;;;;;;;5047369;28;20053;-84
2021/03/20 02:25:42;;;;;;;6.32;3.65;;;;;;;;;;5116605;28;20056;-85
2021/03/20 02:28:17;;;;;;;9.48;3.88;;;;;;;;;;5117461;28;20096;-84
2021/03/20 02:30:47;;;;;;;7.47;3.35;;;;;;;;;;5117983;28;20336;-84
2021/03/20 02:33:34;;;;;;;7.07;3.60;;;;;;;;;;5099449;28;20043;-84
2021/03/20 02:36:07;;;;;;;8.35;3.65;;;;;;;;;;5097231;28;20493;-84
2021/03/20 02:38:56;;;;;;;9.57;4.45;;;;;;;;;;5094905;28;20332;-84
2021/03/20 02:41:25;;;;;;;13.93;4.70;;;;;;;;;;5095482;28;20048;-84
2021/03/20 02:44:00;;;;;;;11.40;4.25;;;;;;;;;;5096848;28;20135;-84
2021/03/20 02:46:30;;;;;;;6.93;3.72;;;;;;;;;;5096526;28;20101;-84
2021/03/20 02:49:10;;;;;;;10.18;3.78;;;;;;;;;;5097136;28;20436;-84
2021/03/20 02:51:42;;;;;;;9.27;3.92;;;;;;;;;;5096637;28;20064;-84
2021/03/20 02:54:31;;;;;;;6.95;3.80;;;;;;;;;;5097012;28;20052;-84
2021/03/20 02:57:19;;;;;;;12.63;3.80;;;;;;;;;;5088175;28;20060;-84
2021/03/20 02:59:58;;;;;;;6.45;3.40;;;;;;;;;;5111695;28;20063;-83
2021/03/20 03:02:26;;;;;;;7.68;3.45;;;;;;;;;;5113412;28;20036;-84
2021/03/20 03:04:55;;;;;;;7.00;4.07;;;;;;;;;;5105165;28;20372;-84
2021/03/20 03:07:32;;;;;;;11.23;4.00;;;;;;;;;;5097697;28;20085;-84
2021/03/20 03:10:04;;;;;;;11.88;4.35;;;;;;;;;;5100302;28;20051;-84
2021/03/20 03:12:35;;;;;;;16.73;3.85;;;;;;;;;;5108884;28;20048;-84
2021/03/20 03:15:04;;;;;;;8.50;3.50;;;;;;;;;;5112031;28;20088;-84
2021/03/20 03:17:39;;;;;;;8.88;4.30;;;;;;;;;;5098315;28;20056;-84
2021/03/20 03:20:16;;;;;;;12.60;3.78;;;;;;;;;;5098046;28;20074;-84
2021/03/20 03:22:44;;;;;;;10.88;4.25;;;;;;;;;;5097057;28;20055;-84
2021/03/20 03:25:12;;;;;;;10.43;4.28;;;;;;;;;;5096290;28;20469;-84
2021/03/20 03:27:45;;;;;;;13.15;3.78;;;;;;;;;;5095709;28;20051;-84
2021/03/20 03:30:13;;;;;;;16.17;3.97;;;;;;;;;;5096220;28;20141;-84
2021/03/20 03:32:43;;;;;;;13.55;4.72;;;;;;;;;;5097188;28;20056;-84
2021/03/20 03:35:12;;;;;;;10.90;4.03;;;;;;;;;;5096972;28;20052;-84
2021/03/20 03:38:08;;;;;;;6.68;3.25;;;;;;;;;;5097499;28;20376;-84
2021/03/20 03:40:54;;;;;;;13.35;4.40;;;;;;;;;;5087931;28;20428;-84
2021/03/20 03:43:23;;;;;;;12.32;3.80;;;;;;;;;;5076004;28;20386;-84
2021/03/20 03:45:49;;;;;;;14.38;3.97;;;;;;;;;;5130379;27;20446;-84
2021/03/20 03:48:18;;;;;;;7.47;4.03;;;;;;;;;;5098037;28;20393;-84
2021/03/20 03:50:45;;;;;;;7.00;3.67;;;;;;;;;;5131505;27;20382;-84
2021/03/20 03:53:25;;;;;;;6.78;4.15;;;;;;;;;;5109860;28;20092;-84
2021/03/20 03:55:55;;;;;;;6.45;4.25;;;;;;;;;;5117627;28;20346;-84
2021/03/20 03:58:23;;;;;;;14.77;4.05;;;;;;;;;;5117385;28;20389;-84
2021/03/20 04:00:52;;;;;;;11.43;3.67;;;;;;;;;;5115227;28;20048;-84
2021/03/20 04:03:38;;;;;;;11.38;4.22;;;;;;;;;;5115015;28;20116;-84
2021/03/20 04:06:10;;;;;;;7.50;4.32;;;;;;;;;;5116273;28;20040;-84
2021/03/20 04:08:44;;;;;;;14.48;4.20;;;;;;;;;;5117930;28;20051;-84
2021/03/20 04:11:22;;;;;;;10.40;3.50;;;;;;;;;;5099514;28;20420;-84
2021/03/20 04:13:51;;;;;;;10.85;4.38;;;;;;;;;;5096158;28;20458;-84
2021/03/20 04:16:19;;;;;;;8.63;3.72;;;;;;;;;;5095241;28;20052;-84
2021/03/20 04:18:58;;;;;;;8.63;3.88;;;;;;;;;;5099052;28;20135;-86
2021/03/20 04:21:23;;;;;;;7.05;3.78;;;;;;;;;;5103678;28;20052;-84
2021/03/20 04:23:56;;;;;;;8.05;3.40;;;;;;;;;;5111270;28;20074;-84
2021/03/20 04:26:28;;;;;;;9.43;4.18;;;;;;;;;;5110516;28;20111;-84
2021/03/20 04:29:05;;;;;;;6.97;4.05;;;;;;;;;;5109048;28;20354;-84
2021/03/20 04:31:35;;;;;;;7.18;3.92;;;;;;;;;;5099800;28;20067;-84
2021/03/20 04:34:20;;;;;;;6.82;3.33;;;;;;;;;;5101209;28;20112;-84
2021/03/20 04:36:46;;;;;;;9.77;4.55;;;;;;;;;;5100505;28;20055;-84
2021/03/20 04:39:17;;;;;;;9.65;4.28;;;;;;;;;;5100052;28;20374;-84
2021/03/20 04:41:51;;;;;;;7.05;3.97;;;;;;;;;;5100489;28;20199;-85
2021/03/20 04:44:17;;;;;;;6.35;3.25;;;;;;;;;;5100602;28;20490;-84
2021/03/20 04:46:53;;;;;;;12.13;3.70;;;;;;;;;;5101369;28;20139;-84
2021/03/20 04:49:38;;;;;;;9.75;4.30;;;;;;;;;;5101538;28;20075;-85
2021/03/20 04:52:23;;;;;;;10.63;3.25;;;;;;;;;;5100335;28;20291;-84
2021/03/20 04:54:50;;;;;;;8.20;3.75;;;;;;;;;;5113416;28;20093;-84
2021/03/20 04:57:42;;;;;;;7.75;4.03;;;;;;;;;;5114539;28;20051;-84
2021/03/20 05:00:21;;;;;;;7.13;3.63;;;;;;;;;;5077420;28;20056;-84
2021/03/20 05:02:53;;;;;;;7.63;3.78;;;;;;;;;;5101034;28;20094;-84
2021/03/20 05:05:27;;;;;;;5.63;3.58;;;;;;;;;;5100938;28;20101;-84
2021/03/20 05:08:15;;;;;;;7.97;3.70;;;;;;;;;;5099767;28;20067;-85
2021/03/20 05:10:55;;;;;;;10.18;3.35;;;;;;;;;;5097995;28;20299;-84
2021/03/20 05:13:29;;;;;;;4.97;3.00;;;;;;;;;;5098121;28;20048;-84
2021/03/20 05:16:23;;;;;;;7.25;3.95;;;;;;;;;;5099501;28;20166;-84
2021/03/20 05:18:50;;;;;;;8.23;4.13;;;;;;;;;;5099454;28;20071;-84
2021/03/20 05:21:27;;;;;;;8.15;3.45;;;;;;;;;;5098586;28;20044;-83
2021/03/20 05:23:57;;;;;;;8.98;3.60;;;;;;;;;;5099148;28;20396;-83
2021/03/20 05:26:24;;;;;;;11.15;3.67;;;;;;;;;;5099014;28;20069;-83
2021/03/20 05:28:53;;;;;;;6.00;3.38;;;;;;;;;;5098471;28;20052;-85
2021/03/20 05:31:21;;;;;;;8.63;3.45;;;;;;;;;;5099010;28;20052;-83
2021/03/20 05:33:48;;;;;;;5.88;4.07;;;;;;;;;;5111192;28;20086;-83
2021/03/20 05:36:18;;;;;;;9.00;3.88;;;;;;;;;;5118873;28;20162;-83
2021/03/20 05:38:47;;;;;;;8.95;4.05;;;;;;;;;;5117559;28;20043;-83
2021/03/20 05:41:19;;;;;;;7.82;3.83;;;;;;;;;;5118448;28;20043;-84
2021/03/20 05:44:06;;;;;;;8.45;3.92;;;;;;;;;;5114758;28;20051;-84
2021/03/20 05:46:34;;;;;;;;;;;;;;;;;;5118839;28;20403;-83
2021/03/20 05:49:10;;;;;;;5.32;3.42;;;;;;;;;;5117117;28;19920;-83
2021/03/20 05:51:36;;;;;;;5.53;2.97;;;;;;;;;;5116325;28;20051;-83
2021/03/20 05:54:20;;;;;;;11.20;3.38;;;;;;;;;;5116723;28;20319;-83
2021/03/20 05:56:52;;;;;;;6.43;3.25;;;;;;;;;;5117534;28;20051;-83
2021/03/20 05:59:30;;;;;;;7.07;3.00;;;;;;;;;;5123515;28;20043;-84
2021/03/20 06:02:15;;;;;;;5.72;3.25;;;;;;;;;;5117230;28;20043;-84
2021/03/20 06:04:45;;;;;;;6.13;3.33;;;;;;;;;;5114580;28;20054;-84
2021/03/20 06:07:23;;;;;;;8.75;3.63;;;;;;;;;;5116187;28;20327;-83
2021/03/20 06:09:55;;;;;;;8.88;3.47;;;;;;;;;;5113078;28;20047;-83
2021/03/20 06:12:27;;;;;;;7.90;3.47;;;;;;;;;;5113700;28;20054;-83
2021/03/20 06:15:05;;;;;;;9.25;3.35;;;;;;;;;;5116216;28;20081;-84
2021/03/20 06:17:36;;;;;;;6.45;3.10;;;;;;;;;;5113537;28;20048;-83
2021/03/20 06:20:21;;;;;;;10.52;3.47;;;;;;;;;;5113775;28;20118;-85
2021/03/20 06:23:06;;;;;;;4.45;3.13;;;;;;;;;;5115308;28;20453;-85
2021/03/20 06:25:40;;;;;;;7.38;2.75;;;;;;;;;;5113492;28;20044;-83
2021/03/20 06:28:10;;;;;;;6.55;2.92;;;;;;;;;;5114839;28;20058;-83
2021/03/20 06:30:44;;;;;;;8.05;2.88;;;;;;;;;;5112164;28;20059;-83
2021/03/20 06:33:18;;;;;;;6.38;3.22;;;;;;;;;;5114836;28;20061;-83
2021/03/20 06:35:46;;;;;;;5.90;2.58;;;;;;;;;;5115678;28;20047;-83
2021/03/20 06:38:18;;;;;;;7.32;3.08;;;;;;;;;;5119138;28;20051;-84
2021/03/20 06:40:53;;;;;;;8.57;3.10;;;;;;;;;;5132231;28;20054;-84
2021/03/20 06:43:40;;;;;;;7.47;2.63;;;;;;;;;;5131291;28;20058;-84
2021/03/20 06:46:12;;;;;;;8.00;3.17;;;;;;;;;;5118902;28;20109;-84
2021/03/20 06:48:47;;;;;;;9.82;3.75;;;;;;;;;;5117199;28;20160;-84
2021/03/20 06:51:13;;;;;;;7.20;2.42;;;;;;;;;;5120979;28;20043;-85
2021/03/20 06:53:58;;;;;;;8.52;2.70;;;;;;;;;;5130869;28;20055;-83
2021/03/20 06:56:25;;;;;;;6.85;2.28;;;;;;;;;;5123477;28;20048;-84
2021/03/20 06:58:51;;;;;;;7.95;2.55;;;;;;;;;;5119852;28;20470;-84
2021/03/20 07:01:24;;;;;;;7.53;2.45;;;;;;;;;;5118573;28;20054;-84
2021/03/20 07:04:11;;;;;;;5.53;2.30;;;;;;;;;;5116170;28;20058;-84
2021/03/20 07:06:49;;;;;;;8.77;2.92;;;;;;;;;;5135074;27;20054;-84
2021/03/20 07:09:18;;;;;;;7.97;2.90;;;;;;;;;;5137166;27;20051;-84
2021/03/20 07:12:02;;;;;;;8.50;2.65;;;;;;;;;;5137652;27;20134;-84
2021/03/20 07:14:34;;;;;;;5.78;2.95;;;;;;;;;;5140819;27;20119;-84
2021/03/20 07:17:05;;;;;;;4.50;2.13;;;;;;;;;;5144602;27;20051;-84
2021/03/20 07:19:31;;;;;;;4.68;2.25;;;;;;;;;;5125679;27;20050;-84
2021/03/20 07:21:57;;;;;;;5.03;2.60;;;;;;;;;;5116962;28;20086;-84
2021/03/20 07:24:35;;;;;;;7.93;2.88;;;;;;;;;;5116149;28;20044;-84
2021/03/20 07:27:06;;;;;;;11.10;2.50;;;;;;;;;;5113276;28;20040;-84
2021/03/20 07:29:49;;;;;;;8.48;2.42;;;;;;;;;;5115010;28;20461;-84
2021/03/20 07:32:18;;;;;;;6.30;2.83;;;;;;;;;;5114139;28;20059;-84
2021/03/20 07:34:56;;;;;;;8.63;3.20;;;;;;;;;;5122093;28;20046;-84
2021/03/20 07:37:27;;;;;;;4.40;2.40;;;;;;;;;;5129452;28;20048;-84
2021/03/20 07:39:53;;;;;;;4.70;2.47;;;;;;;;;;5131108;28;20070;-84
2021/03/20 07:42:30;;;;;;;10.13;2.90;;;;;;;;;;5129007;28;20039;-84
2021/03/20 07:45:09;;;;;;;5.70;2.03;;;;;;;;;;5125786;28;20058;-84
2021/03/20 07:47:42;;;;;;;10.18;2.38;;;;;;;;;;5131077;28;20047;-84
2021/03/20 07:50:09;;;;;;;4.57;2.85;;;;;;;;;;5125079;28;20210;-84
2021/03/20 07:52:36;;;;;;;4.60;2.33;;;;;;;;;;5116053;28;20054;-84
2021/03/20 07:55:14;;;;;;;5.43;2.33;;;;;;;;;;5111796;28;20040;-84
2021/03/20 07:57:53;;;;;;;6.85;2.22;;;;;;;;;;5100038;28;20385;-84
2021/03/20 08:00:21;;;;;;;8.35;2.53;;;;;;;;;;5099173;28;20051;-85
2021/03/20 08:02:49;;;;;;;8.05;2.63;;;;;;;;;;5097160;28;20044;-85
2021/03/20 08:05:20;;;;;;;3.13;2.28;;;;;;;;;;5096066;28;20055;-85
2021/03/20 08:07:54;;;;;;;5.60;2.35;;;;;;;;;;5103418;28;20168;-85
2021/03/20 08:10:33;;;;;;;8.30;2.30;;;;;;;;;;5115377;28;20039;-85
2021/03/20 08:13:15;;;;;;;6.32;2.50;;;;;;;;;;5116157;28;20387;-85
2021/03/20 08:15:44;;;;;;;2.97;1.70;;;;;;;;;;5117593;28;20044;-85
2021/03/20 08:18:30;;;;;;;3.67;1.60;;;;;;;;;;5116659;28;20066;-85
2021/03/20 08:21:00;;;;;;;6.32;1.92;;;;;;;;;;5128690;27;20075;-85
2021/03/20 08:23:35;;;;;;;7.43;1.90;;;;;;;;;;5103751;28;20043;-85
2021/03/20 08:26:27;;;;;;;5.75;2.05;;;;;;;;;;5142960;27;20047;-85
2021/03/20 08:28:59;;;;;;;6.63;1.92;;;;;;;;;;5112675;28;20071;-85
2021/03/20 08:31:35;;;;;;;7.63;2.35;;;;;;;;;;5112409;28;20090;-85
2021/03/20 08:34:10;;;;;;;3.88;1.85;;;;;;;;;;5114946;28;20047;-85
2021/03/20 08:37:00;;;;;;;6.20;2.17;;;;;;;;;;5109631;28;20048;-85
2021/03/20 08:39:32;;;;;;;6.47;1.80;;;;;;;;;;5109674;28;20040;-85
2021/03/20 08:42:18;;;;;;;4.88;2.25;;;;;;;;;;5103531;28;20093;-85
2021/03/20 08:45:03;;;;;;;9.52;2.42;;;;;;;;;;5126810;28;20031;-85
2021/03/20 08:47:48;;;;;;;5.63;2.15;;;;;;;;;;5132006;28;20127;-86
2021/03/20 08:50:14;;;;;;;10.02;2.10;;;;;;;;;;5131773;28;20111;-85
2021/03/20 08:52:56;;;;;;;9.80;2.22;;;;;;;;;;5128559;28;20031;-85
2021/03/20 08:55:31;;;;;;;3.83;2.08;;;;;;;;;;5131006;28;20048;-85
2021/03/20 08:58:00;;;;;;;2.70;1.60;;;;;;;;;;5130775;28;20047;-85
2021/03/20 09:00:31;;;;;;;3.70;1.50;;;;;;;;;;5131800;28;20205;-85
2021/03/20 09:03:01;;;;;;;5.85;2.03;;;;;;;;;;5129804;28;20107;-85
2021/03/20 09:05:30;;;;;;;5.88;2.20;;;;;;;;;;5130519;28;20082;-84
2021/03/20 09:07:59;;;;;;;6.43;2.45;;;;;;;;;;5132161;28;20070;-83
2021/03/20 09:10:57;;;;;;;2.65;1.60;;;;;;;;;;5127891;27;20275;-84
2021/03/20 09:13:43;;;;;;;8.35;2.72;;;;;;;;;;5127732;28;20071;-84
2021/03/20 09:16:31;;;;;;;7.93;2.15;;;;;;;;;;5127361;28;20127;-84
2021/03/20 09:19:01;;;;;;;8.43;1.65;;;;;;;;;;5123529;28;20070;-83
2021/03/20 09:21:31;;;;;;;4.45;1.48;;;;;;;;;;5117624;28;20040;-83
2021/03/20 09:24:04;;;;;;;4.32;1.83;;;;;;;;;;5119069;28;20054;-83
2021/03/20 09:26:53;;;;;;;3.17;1.70;;;;;;;;;;5122074;27;20070;-84
2021/03/20 09:29:29;;;;;;;5.13;2.22;;;;;;;;;;5122769;28;20052;-79
2021/03/20 09:31:55;;;;;;;2.97;1.77;;;;;;;;;;5146902;27;20043;-79
2021/03/20 09:34:27;;;;;;;6.32;1.60;;;;;;;;;;5117830;28;20138;-80
2021/03/20 09:36:53;;;;;;;5.63;1.63;;;;;;;;;;5112713;28;20479;-80
2021/03/20 09:39:38;;;;;;;6.65;2.30;;;;;;;;;;5113738;28;20258;-79
2021/03/20 09:42:25;;;;;;;2.85;1.70;;;;;;;;;;5114350;28;20048;-80
2021/03/20 09:45:11;;;;;;;2.95;1.63;;;;;;;;;;5117756;27;20040;-80
2021/03/20 09:47:40;;;;;;;4.15;1.55;;;;;;;;;;5102553;28;20047;-80
2021/03/20 09:50:16;;;;;;;6.85;2.03;;;;;;;;;;5110500;28;20051;-80
2021/03/20 09:52:44;;;;;;;4.30;1.90;;;;;;;;;;5109298;28;20050;-80
2021/03/20 09:55:32;;;;;;;6.80;1.55;;;;;;;;;;5114845;28;20516;-80
2021/03/20 09:58:02;;;;;;;4.60;1.60;;;;;;;;;;5115594;28;20044;-80
2021/03/20 10:00:48;;;;;;;3.15;1.40;;;;;;;;;;5115420;28;20372;-80
2021/03/20 10:03:33;;;;;;;3.53;1.83;;;;;;;;;;5114852;28;20362;-80
2021/03/20 10:06:21;;;;;;;5.38;1.48;;;;;;;;;;5108889;28;20043;-80
2021/03/20 10:09:19;;;;;;;5.28;1.85;;;;;;;;;;5113784;28;20182;-80
2021/03/20 10:12:00;;;;;;;5.22;1.90;;;;;;;;;;5112759;27;20047;-80
2021/03/20 10:14:30;;;;;;;4.95;1.50;;;;;;;;;;5112468;28;20043;-80
2021/03/20 10:17:13;;;;;;;5.50;1.38;;;;;;;;;;5120011;28;20058;-80
2021/03/20 10:20:01;;;;;;;4.57;2.17;;;;;;;;;;5119515;28;20047;-80
2021/03/20 10:22:29;;;;;;;3.80;1.80;;;;;;;;;;5122232;28;20205;-80
2021/03/20 10:24:59;;;;;;;3.42;1.90;;;;;;;;;;5117280;28;20078;-81
2021/03/20 10:27:39;;;;;;;2.75;1.77;;;;;;;;;;5102412;28;20466;-80
2021/03/20 10:30:22;;;;;;;3.53;2.40;;;;;;;;;;5100686;28;20067;-80
2021/03/20 10:33:22;;;;;;;6.15;2.15;;;;;;;;;;5108584;28;20048;-80
2021/03/20 10:35:50;;;;;;;3.88;2.05;;;;;;;;;;5096907;28;20040;-81
2021/03/20 10:38:28;;;;;;;3.42;1.88;;;;;;;;;;5102376;28;20032;-81
2021/03/20 10:41:17;;;;;;;4.88;2.10;;;;;;;;;;5116469;28;20266;-81
2021/03/20 10:44:03;;;;;;;4.97;2.53;;;;;;;;;;5110041;28;20066;-81
2021/03/20 10:46:49;;;;;;;6.78;2.47;;;;;;;;;;5121747;28;20098;-81
2021/03/20 10:49:19;;;;;;;7.10;2.63;;;;;;;;;;5119015;28;20340;-82
2021/03/20 10:51:48;;;;;;;6.05;2.63;;;;;;;;;;5116751;28;20260;-82
2021/03/20 10:54:26;;;;;;;4.03;2.20;;;;;;;;;;5114432;28;20124;-81
2021/03/20 10:56:54;;;;;;;4.75;2.42;;;;;;;;;;5114540;28;20100;-80
2021/03/20 10:59:40;;;;;;;6.40;2.58;;;;;;;;;;5116964;28;20031;-80
2021/03/20 11:02:28;;;;;;;6.80;2.97;;;;;;;;;;5113180;28;20066;-81
2021/03/20 11:05:09;;;;;;;7.75;2.92;;;;;;;;;;5114469;28;20043;-80
2021/03/20 11:07:46;;;;;;;4.93;2.70;;;;;;;;;;5112597;28;20399;-81
2021/03/20 11:10:13;;;;;;;7.28;2.92;;;;;;;;;;5109787;28;20400;-81
2021/03/20 11:12:42;;;;;;;3.78;2.42;;;;;;;;;;5112918;28;20066;-81
2021/03/20 11:15:19;;;;;;;5.22;2.88;;;;;;;;;;5113188;28;20043;-81
2021/03/20 11:17:51;;;;;;;4.88;3.13;;;;;;;;;;5142176;27;20461;-81
2021/03/20 11:20:22;;;;;;;9.45;3.22;;;;;;;;;;5113828;27;20047;-81
2021/03/20 11:22:51;;;;;;;5.47;3.05;;;;;;;;;;5111341;28;20039;-81
2021/03/20 11:25:33;;;;;;;4.57;3.17;;;;;;;;;;5111218;28;20196;-81
2021/03/20 11:28:08;;;;;;;7.78;3.58;;;;;;;;;;5108869;28;20107;-81
2021/03/20 11:30:57;;;;;;;5.03;3.20;;;;;;;;;;5112888;28;20055;-81
2021/03/20 11:33:27;;;;;;;8.95;3.35;;;;;;;;;;5116524;27;20144;-81
2021/03/20 11:36:00;;;;;;;10.93;3.58;;;;;;;;;;5116126;27;20300;-81
2021/03/20 11:38:26;;;;;;;11.88;4.00;;;;;;;;;;5116074;28;20116;-81
2021/03/20 11:40:54;;;;;;;8.63;4.03;;;;;;;;;;5118014;28;20147;-81
2021/03/20 11:43:28;;;;;;;7.45;4.20;;;;;;;;;;5107504;28;20389;-81
2021/03/20 11:46:11;;;;;;;9.90;4.07;;;;;;;;;;5114749;27;20044;-82
2021/03/20 11:48:42;;;;;;;10.80;3.93;;;;;;;;;;5118622;28;20051;-82
2021/03/20 11:51:24;;;;;;;8.32;4.30;;;;;;;;;;5118845;28;20328;-80
2021/03/20 11:53:54;;;;;;;7.90;3.97;;;;;;;;;;5117587;27;20082;-81
2021/03/20 11:56:40;;;;;;;5.05;3.53;;;;;;;;;;5115353;27;20245;-81
2021/03/20 11:59:26;;;;;;;6.00;3.80;;;;;;;;;;5109531;28;20463;-81
2021/03/20 12:01:58;;;;;;;6.25;3.78;;;;;;;;;;5113788;28;20108;-81
2021/03/20 12:04:26;;;;;;;4.03;3.35;;;;;;;;;;5119077;28;20051;-81
2021/03/20 12:07:12;;;;;;;6.95;4.05;;;;;;;;;;5115794;28;20228;-81
2021/03/20 12:09:40;;;;;;;6.97;3.75;;;;;;;;;;5113634;28;20051;-80
2021/03/20 12:12:07;;;;;;;8.13;3.88;;;;;;;;;;5122463;27;20047;-81
2021/03/20 12:14:38;;;;;;;8.70;3.35;;;;;;;;;;5118162;28;20155;-81
2021/03/20 12:17:15;;;;;;;5.00;3.50;;;;;;;;;;5118921;28;20363;-81
2021/03/20 12:19:59;;;;;;;8.32;4.05;;;;;;;;;;5115166;28;20069;-81
2021/03/20 12:22:46;;;;;;;8.63;3.33;;;;;;;;;;5116332;28;20043;-81
2021/03/20 12:25:18;;;;;;;6.65;3.53;;;;;;;;;;5114537;28;20222;-81
2021/03/20 12:27:45;;;;;;;6.32;3.50;;;;;;;;;;5117275;28;20047;-82
2021/03/20 12:30:28;;;;;;;7.80;3.90;;;;;;;;;;5115553;28;20090;-80
2021/03/20 12:33:11;;;;;;;4.65;3.30;;;;;;;;;;5111337;28;20048;-80
2021/03/20 12:35:48;;;;;;;9.40;4.07;;;;;;;;;;5118370;28;20508;-80
2021/03/20 12:38:17;;;;;;;5.28;3.53;;;;;;;;;;5117786;27;20402;-80
2021/03/20 12:40:47;;;;;;;4.57;3.53;;;;;;;;;;5117309;28;20198;-80
2021/03/20 12:43:17;;;;;;;5.95;3.35;;;;;;;;;;5116794;28;20047;-81
2021/03/20 12:45:46;;;;;;;7.72;3.97;;;;;;;;;;5116913;28;20067;-80
2021/03/20 12:48:14;;;;;;;4.95;3.60;;;;;;;;;;5114593;28;20210;-80
2021/03/20 12:50:41;;;;;;;7.80;3.35;;;;;;;;;;5115550;27;20062;-80
2021/03/20 12:53:07;;;;;;;5.25;3.70;;;;;;;;;;5116155;28;20055;-80
2021/03/20 12:55:37;;;;;;;6.18;3.47;;;;;;;;;;5095343;28;20050;-80
2021/03/20 12:58:06;;;;;;;7.70;3.53;;;;;;;;;;5095994;28;20143;-80
2021/03/20 13:00:40;;;;;;;6.10;3.30;;;;;;;;;;5098073;28;20048;-80
2021/03/20 13:03:10;;;;;;;4.32;3.15;;;;;;;;;;5103859;28;20040;-80
2021/03/20 13:05:45;;;;;;;7.05;3.63;;;;;;;;;;5116663;28;20048;-80
2021/03/20 13:08:14;;;;;;;6.97;3.30;;;;;;;;;;5123607;28;20039;-80
2021/03/20 13:10:55;;;;;;;6.07;3.40;;;;;;;;;;5114977;28;20515;-80
2021/03/20 13:13:30;;;;;;;6.43;3.95;;;;;;;;;;5117401;28;20053;-80
2021/03/20 13:15:56;;;;;;;7.05;3.83;;;;;;;;;;5117701;28;20053;-80
2021/03/20 13:18:38;;;;;;;6.68;3.45;;;;;;;;;;5130997;27;20047;-80
2021/03/20 13:21:08;;;;;;;6.28;3.90;;;;;;;;;;5128690;28;20100;-80
2021/03/20 13:23:40;;;;;;;7.13;4.25;;;;;;;;;;5128355;28;20069;-80
2021/03/20 13:26:09;;;;;;;4.70;3.67;;;;;;;;;;5122254;28;20407;-80
2021/03/20 13:28:37;;;;;;;7.22;3.40;;;;;;;;;;5120091;28;20238;-80
2021/03/20 13:31:03;;;;;;;6.85;3.95;;;;;;;;;;5126732;28;20074;-80
2021/03/20 13:33:29;;;;;;;5.25;3.75;;;;;;;;;;5115837;27;20063;-80
2021/03/20 13:35:56;;;;;;;6.93;3.88;;;;;;;;;;5116654;28;20144;-80
2021/03/20 13:38:25;;;;;;;6.72;3.42;;;;;;;;;;5116023;28;20055;-80
2021/03/20 13:40:57;;;;;;;6.10;3.55;;;;;;;;;;5115646;28;20206;-80
2021/03/20 13:43:23;;;;;;;6.25;3.60;;;;;;;;;;5115566;28;20342;-80
2021/03/20 13:45:49;;;;;;;4.60;3.58;;;;;;;;;;5113490;28;20051;-80
2021/03/20 13:48:21;;;;;;;5.07;3.85;;;;;;;;;;5113847;28;20047;-80
2021/03/20 13:50:49;;;;;;;8.73;4.63;;;;;;;;;;5112824;28;20051;-80
2021/03/20 13:53:25;;;;;;;4.40;3.47;;;;;;;;;;5114476;28;20438;-79
2021/03/20 13:55:56;;;;;;;6.78;4.20;;;;;;;;;;5120418;28;20280;-79
2021/03/20 13:58:26;;;;;;;7.32;4.40;;;;;;;;;;5108889;28;20048;-80
2021/03/20 14:00:56;;;;;;;9.75;4.75;;;;;;;;;;5096390;28;20412;-80
2021/03/20 14:03:27;;;;;;;12.45;4.90;;;;;;;;;;5102165;28;20048;-81
2021/03/20 14:05:53;;;;;;;6.72;4.55;;;;;;;;;;5115184;28;20058;-81
2021/03/20 14:08:20;;;;;;;11.43;4.95;;;;;;;;;;5126408;28;20123;-81
2021/03/20 14:10:46;;;;;;;7.88;4.55;;;;;;;;;;5100448;28;20122;-80
2021/03/20 14:13:13;;;;;;;12.02;3.97;;;;;;;;;;5093230;28;20059;-81
2021/03/20 14:15:49;;;;;;;7.82;4.10;;;;;;;;;;5097895;28;20043;-81
2021/03/20 14:18:19;;;;;;;9.10;4.57;;;;;;;;;;5111470;28;20059;-81
2021/03/20 14:20:47;;;;;;;6.93;4.80;;;;;;;;;;5112742;28;20273;-81
2021/03/20 14:23:17;;;;;;;8.20;4.68;;;;;;;;;;5098921;28;20186;-81
2021/03/20 14:25:44;;;;;;;10.23;5.00;;;;;;;;;;5093865;28;20047;-81
2021/03/20 14:28:12;;;;;;;10.43;5.15;;;;;;;;;;5100849;28;20048;-79
2021/03/20 14:30:42;;;;;;;6.72;4.50;;;;;;;;;;5093631;28;20064;-81
2021/03/20 14:33:24;;;;;;;10.63;5.15;;;;;;;;;;5105200;28;20107;-81
2021/03/20 14:35:52;;;;;;;11.25;5.10;;;;;;;;;;5109295;28;20074;-81
2021/03/20 14:38:23;;;;;;;6.88;4.30;;;;;;;;;;5111258;28;20056;-80
2021/03/20 14:40:49;;;;;;;12.38;5.10;;;;;;;;;;5112179;27;20238;-80
2021/03/20 14:43:19;;;;;;;7.80;4.97;;;;;;;;;;5106863;27;20107;-79
2021/03/20 14:45:46;;;;;;;7.43;4.20;;;;;;;;;;5089629;28;20068;-79
2021/03/20 14:48:16;;;;;;;6.75;4.65;;;;;;;;;;5098885;28;20408;-81
2021/03/20 14:50:46;;;;;;;6.45;4.28;;;;;;;;;;5110206;28;20077;-79
2021/03/20 14:53:15;;;;;;;7.03;4.30;;;;;;;;;;5113291;28;20047;-79
2021/03/20 14:55:42;;;;;;;8.55;4.80;;;;;;;;;;5107306;28;20062;-80
2021/03/20 14:58:14;;;;;;;7.82;5.13;;;;;;;;;;5113092;28;20039;-80
2021/03/20 15:00:45;;;;;;;7.70;5.05;;;;;;;;;;5110075;28;20047;-79
2021/03/20 15:03:12;;;;;;;9.23;4.82;;;;;;;;;;5105262;28;20379;-79
2021/03/20 15:05:40;;;;;;;7.60;4.68;;;;;;;;;;5111373;28;20294;-80
2021/03/20 15:08:17;;;;;;;11.50;5.47;;;;;;;;;;5110902;28;20109;-79
2021/03/20 15:10:52;;;;;;;9.57;5.32;;;;;;;;;;5111246;28;20055;-79
2021/03/20 15:13:23;;;;;;;6.97;4.85;;;;;;;;;;5101891;28;20105;-80
2021/03/20 15:15:49;;;;;;;9.38;5.22;;;;;;;;;;5093322;28;20043;-80
2021/03/20 15:18:22;;;;;;;10.02;5.53;;;;;;;;;;5115352;28;20071;-80
2021/03/20 15:20:50;;;;;;;9.27;5.95;;;;;;;;;;5112463;28;20051;-80